sensor_id;sensor_type;location;lat;lon;timestamp;temperature;humidity
24035;DHT22;12242;50.952;4.678;2023-01-10T00:01:48;6.60;99.90
24035;DHT22;12242;50.952;4.678;2023-01-10T00:04:18;6.60;99.90
24035;DHT22;12242;50.952;4.678;2023-01-10T00:06:45;6.60;99.90
24035;DHT22;12242;50.952;4.678;2023-01-10T00:09:12;6.60;99.90
24035;DHT22;12242;50.952;4.678;2023-01-10T00:11:40;6.50;99.90
24035;DHT22;12242;50.952;4.678;2023-01-10T00:14:27;6.50;99.90
24035;DHT22;12242;50.952;4.678;2023-01-10T00:17:00;6.60;99.90
24035;DHT22;12242;50.952;4.678;2023-01-10T00:19:28;6.60;99.90
24035;DHT22;12242;50.952;4.678;2023-01-10T00:21:57;6.60;99.90
24035;DHT22;12242;50.952;4.678;2023-01-10T00:24:28;6.60;99.90
24035;DHT22;12242;50.952;4.678;2023-01-10T00:26:55;6.70;99.90
24035;DHT22;12242;50.952;4.678;2023-01-10T00:29:27;6.70;99.90
24035;DHT22;12242;50.952;4.678;2023-01-10T00:31:55;6.60;99.90
24035;DHT22;12242;50.952;4.678;2023-01-10T00:34:25;6.60;99.90
24035;DHT22;12242;50.952;4.678;2023-01-10T00:36:53;6.60;99.90
24035;DHT22;12242;50.952;4.678;2023-01-10T00:39:22;6.60;99.90
24035;DHT22;12242;50.952;4.678;2023-01-10T00:41:53;6.60;99.90
24035;DHT22;12242;50.952;4.678;2023-01-10T00:44:41;6.50;99.90
24035;DHT22;12242;50.952;4.678;2023-01-10T00:47:09;6.40;99.90
24035;DHT22;12242;50.952;4.678;2023-01-10T00:49:38;6.30;99.90
24035;DHT22;12242;50.952;4.678;2023-01-10T00:52:06;6.40;99.90
24035;DHT22;12242;50.952;4.678;2023-01-10T00:54:36;6.50;99.90
24035;DHT22;12242;50.952;4.678;2023-01-10T00:57:03;6.50;99.90
24035;DHT22;12242;50.952;4.678;2023-01-10T00:59:35;6.60;99.90
24035;DHT22;12242;50.952;4.678;2023-01-10T01:02:03;6.70;99.90
24035;DHT22;12242;50.952;4.678;2023-01-10T01:04:30;6.80;99.90
24035;DHT22;12242;50.952;4.678;2023-01-10T01:07:00;6.80;99.90
24035;DHT22;12242;50.952;4.678;2023-01-10T01:09:32;6.70;99.90
24035;DHT22;12242;50.952;4.678;2023-01-10T01:12:22;6.80;99.90
24035;DHT22;12242;50.952;4.678;2023-01-10T01:14:49;6.80;99.90
24035;DHT22;12242;50.952;4.678;2023-01-10T01:17:19;6.80;99.90
24035;DHT22;12242;50.952;4.678;2023-01-10T01:19:48;6.90;99.90
24035;DHT22;12242;50.952;4.678;2023-01-10T01:22:15;7.00;99.90
24035;DHT22;12242;50.952;4.678;2023-01-10T01:24:43;7.00;99.90
24035;DHT22;12242;50.952;4.678;2023-01-10T01:27:12;7.00;99.90
24035;DHT22;12242;50.952;4.678;2023-01-10T01:29:39;7.10;99.90
24035;DHT22;12242;50.952;4.678;2023-01-10T01:32:12;7.20;99.90
24035;DHT22;12242;50.952;4.678;2023-01-10T01:34:39;7.20;99.90
24035;DHT22;12242;50.952;4.678;2023-01-10T01:37:07;7.30;99.90
24035;DHT22;12242;50.952;4.678;2023-01-10T01:39:34;7.30;99.90
24035;DHT22;12242;50.952;4.678;2023-01-10T01:42:05;7.30;99.90
24035;DHT22;12242;50.952;4.678;2023-01-10T01:44:35;7.20;99.90
24035;DHT22;12242;50.952;4.678;2023-01-10T01:47:06;7.30;99.90
24035;DHT22;12242;50.952;4.678;2023-01-10T01:49:39;7.30;99.90
24035;DHT22;12242;50.952;4.678;2023-01-10T01:52:11;7.30;99.90
24035;DHT22;12242;50.952;4.678;2023-01-10T01:54:41;7.20;99.90
24035;DHT22;12242;50.952;4.678;2023-01-10T01:57:14;7.10;99.90
24035;DHT22;12242;50.952;4.678;2023-01-10T01:59:45;6.90;99.90
24035;DHT22;12242;50.952;4.678;2023-01-10T02:02:20;6.90;99.90
24035;DHT22;12242;50.952;4.678;2023-01-10T02:05:21;6.90;99.90
24035;DHT22;12242;50.952;4.678;2023-01-10T02:07:53;6.80;99.90
24035;DHT22;12242;50.952;4.678;2023-01-10T02:10:35;6.80;99.90
24035;DHT22;12242;50.952;4.678;2023-01-10T02:13:08;6.70;99.90
24035;DHT22;12242;50.952;4.678;2023-01-10T02:15:40;6.70;99.90
24035;DHT22;12242;50.952;4.678;2023-01-10T02:18:09;6.60;99.90
24035;DHT22;12242;50.952;4.678;2023-01-10T02:23:42;6.70;99.90
24035;DHT22;12242;50.952;4.678;2023-01-10T02:26:47;6.70;99.90
24035;DHT22;12242;50.952;4.678;2023-01-10T02:32:28;6.60;99.90
24035;DHT22;12242;50.952;4.678;2023-01-10T02:38:35;6.70;99.90
24035;DHT22;12242;50.952;4.678;2023-01-10T02:43:51;6.60;99.90
24035;DHT22;12242;50.952;4.678;2023-01-10T02:46:28;6.60;99.90
24035;DHT22;12242;50.952;4.678;2023-01-10T02:49:00;6.70;99.90
24035;DHT22;12242;50.952;4.678;2023-01-10T02:51:31;6.60;99.90
24035;DHT22;12242;50.952;4.678;2023-01-10T02:54:22;6.60;99.90
24035;DHT22;12242;50.952;4.678;2023-01-10T02:59:47;6.50;99.90
24035;DHT22;12242;50.952;4.678;2023-01-10T03:05:28;6.50;99.90
24035;DHT22;12242;50.952;4.678;2023-01-10T03:08:46;6.50;99.90
24035;DHT22;12242;50.952;4.678;2023-01-10T03:10:58;6.50;99.90
24035;DHT22;12242;50.952;4.678;2023-01-10T03:13:36;6.50;99.90
24035;DHT22;12242;50.952;4.678;2023-01-10T03:16:14;6.50;99.90
24035;DHT22;12242;50.952;4.678;2023-01-10T03:18:55;6.50;99.90
24035;DHT22;12242;50.952;4.678;2023-01-10T03:21:25;6.50;99.90
24035;DHT22;12242;50.952;4.678;2023-01-10T03:23:56;6.50;99.90
24035;DHT22;12242;50.952;4.678;2023-01-10T03:26:55;6.50;99.90
24035;DHT22;12242;50.952;4.678;2023-01-10T03:29:30;6.40;99.90
24035;DHT22;12242;50.952;4.678;2023-01-10T03:32:03;6.40;99.90
24035;DHT22;12242;50.952;4.678;2023-01-10T03:34:35;6.20;99.90
24035;DHT22;12242;50.952;4.678;2023-01-10T03:43:02;6.10;99.90
24035;DHT22;12242;50.952;4.678;2023-01-10T03:46:34;6.10;99.90
24035;DHT22;12242;50.952;4.678;2023-01-10T03:48:44;6.10;99.90
24035;DHT22;12242;50.952;4.678;2023-01-10T03:51:13;6.10;99.90
24035;DHT22;12242;50.952;4.678;2023-01-10T03:53:44;6.10;99.90
24035;DHT22;12242;50.952;4.678;2023-01-10T03:56:14;6.10;99.90
24035;DHT22;12242;50.952;4.678;2023-01-10T03:58:41;6.20;99.90
24035;DHT22;12242;50.952;4.678;2023-01-10T04:01:11;6.20;99.90
24035;DHT22;12242;50.952;4.678;2023-01-10T04:03:41;6.10;99.90
24035;DHT22;12242;50.952;4.678;2023-01-10T04:06:08;6.10;99.90
24035;DHT22;12242;50.952;4.678;2023-01-10T04:08:38;6.20;99.90
24035;DHT22;12242;50.952;4.678;2023-01-10T04:11:08;6.10;99.90
24035;DHT22;12242;50.952;4.678;2023-01-10T04:13:35;6.00;99.90
24035;DHT22;12242;50.952;4.678;2023-01-10T04:16:07;6.00;99.90
24035;DHT22;12242;50.952;4.678;2023-01-10T04:18:35;6.00;99.90
24035;DHT22;12242;50.952;4.678;2023-01-10T04:21:03;6.00;99.90
24035;DHT22;12242;50.952;4.678;2023-01-10T04:23:35;6.00;99.90
24035;DHT22;12242;50.952;4.678;2023-01-10T04:26:04;6.00;99.90
24035;DHT22;12242;50.952;4.678;2023-01-10T04:28:31;6.00;99.90
24035;DHT22;12242;50.952;4.678;2023-01-10T04:31:01;6.00;99.90
24035;DHT22;12242;50.952;4.678;2023-01-10T04:33:30;6.00;99.90
24035;DHT22;12242;50.952;4.678;2023-01-10T04:35:58;5.90;99.90
24035;DHT22;12242;50.952;4.678;2023-01-10T04:38:25;5.90;99.90
24035;DHT22;12242;50.952;4.678;2023-01-10T04:40:56;5.90;99.90
24035;DHT22;12242;50.952;4.678;2023-01-10T04:43:24;5.90;99.90
24035;DHT22;12242;50.952;4.678;2023-01-10T04:45:52;5.80;99.90
24035;DHT22;12242;50.952;4.678;2023-01-10T04:48:19;5.90;99.90
24035;DHT22;12242;50.952;4.678;2023-01-10T04:50:54;5.90;99.90
24035;DHT22;12242;50.952;4.678;2023-01-10T04:53:22;5.90;99.90
24035;DHT22;12242;50.952;4.678;2023-01-10T04:55:49;5.80;99.90
24035;DHT22;12242;50.952;4.678;2023-01-10T04:58:18;5.80;99.90
24035;DHT22;12242;50.952;4.678;2023-01-10T05:00:48;5.70;99.90
24035;DHT22;12242;50.952;4.678;2023-01-10T05:03:18;5.60;99.90
24035;DHT22;12242;50.952;4.678;2023-01-10T05:05:46;5.60;99.90
24035;DHT22;12242;50.952;4.678;2023-01-10T05:08:15;5.60;99.90
24035;DHT22;12242;50.952;4.678;2023-01-10T05:10:45;5.60;99.90
24035;DHT22;12242;50.952;4.678;2023-01-10T05:13:15;5.60;99.90
24035;DHT22;12242;50.952;4.678;2023-01-10T05:15:42;5.60;99.90
24035;DHT22;12242;50.952;4.678;2023-01-10T05:18:14;5.60;99.90
24035;DHT22;12242;50.952;4.678;2023-01-10T05:20:44;5.60;99.90
24035;DHT22;12242;50.952;4.678;2023-01-10T05:23:11;5.50;99.90
24035;DHT22;12242;50.952;4.678;2023-01-10T05:25:38;5.40;99.90
24035;DHT22;12242;50.952;4.678;2023-01-10T05:28:10;5.40;99.90
24035;DHT22;12242;50.952;4.678;2023-01-10T05:30:37;5.40;99.90
24035;DHT22;12242;50.952;4.678;2023-01-10T05:33:05;5.40;99.90
24035;DHT22;12242;50.952;4.678;2023-01-10T05:35:33;5.40;99.90
24035;DHT22;12242;50.952;4.678;2023-01-10T05:38:00;5.30;99.90
24035;DHT22;12242;50.952;4.678;2023-01-10T05:40:31;5.30;99.90
24035;DHT22;12242;50.952;4.678;2023-01-10T05:43:00;5.20;99.90
24035;DHT22;12242;50.952;4.678;2023-01-10T05:45:32;5.20;99.90
24035;DHT22;12242;50.952;4.678;2023-01-10T05:48:02;5.20;99.90
24035;DHT22;12242;50.952;4.678;2023-01-10T05:50:29;5.20;99.90
24035;DHT22;12242;50.952;4.678;2023-01-10T05:52:59;5.20;99.90
24035;DHT22;12242;50.952;4.678;2023-01-10T05:55:32;5.20;99.90
24035;DHT22;12242;50.952;4.678;2023-01-10T05:58:00;5.20;99.90
24035;DHT22;12242;50.952;4.678;2023-01-10T06:00:27;5.10;99.90
24035;DHT22;12242;50.952;4.678;2023-01-10T06:02:57;5.10;99.90
24035;DHT22;12242;50.952;4.678;2023-01-10T06:05:24;5.00;99.90
24035;DHT22;12242;50.952;4.678;2023-01-10T06:07:52;5.00;99.90
24035;DHT22;12242;50.952;4.678;2023-01-10T06:10:21;5.00;99.90
24035;DHT22;12242;50.952;4.678;2023-01-10T06:12:48;5.10;99.90
24035;DHT22;12242;50.952;4.678;2023-01-10T06:15:18;5.10;99.90
24035;DHT22;12242;50.952;4.678;2023-01-10T06:17:45;5.10;99.90
24035;DHT22;12242;50.952;4.678;2023-01-10T06:20:15;5.00;99.90
24035;DHT22;12242;50.952;4.678;2023-01-10T06:22:45;5.00;99.90
24035;DHT22;12242;50.952;4.678;2023-01-10T06:25:12;5.00;99.90
24035;DHT22;12242;50.952;4.678;2023-01-10T06:27:43;4.90;99.90
24035;DHT22;12242;50.952;4.678;2023-01-10T06:30:13;4.90;99.90
24035;DHT22;12242;50.952;4.678;2023-01-10T06:32:41;4.80;99.90
24035;DHT22;12242;50.952;4.678;2023-01-10T06:35:13;4.80;99.90
24035;DHT22;12242;50.952;4.678;2023-01-10T06:37:40;4.80;99.90
24035;DHT22;12242;50.952;4.678;2023-01-10T06:40:09;4.80;99.90
24035;DHT22;12242;50.952;4.678;2023-01-10T06:42:39;4.90;99.90
24035;DHT22;12242;50.952;4.678;2023-01-10T06:45:09;4.80;99.90
24035;DHT22;12242;50.952;4.678;2023-01-10T06:47:39;4.80;99.90
24035;DHT22;12242;50.952;4.678;2023-01-10T06:50:09;4.80;99.90
24035;DHT22;12242;50.952;4.678;2023-01-10T06:52:36;4.80;99.90
24035;DHT22;12242;50.952;4.678;2023-01-10T06:55:04;4.90;99.90
24035;DHT22;12242;50.952;4.678;2023-01-10T06:57:33;4.80;99.90
24035;DHT22;12242;50.952;4.678;2023-01-10T07:00:03;4.80;99.90
24035;DHT22;12242;50.952;4.678;2023-01-10T07:02:31;4.80;99.90
24035;DHT22;12242;50.952;4.678;2023-01-10T07:04:58;4.80;99.90
24035;DHT22;12242;50.952;4.678;2023-01-10T07:07:25;4.80;99.90
24035;DHT22;12242;50.952;4.678;2023-01-10T07:09:53;4.80;99.90
24035;DHT22;12242;50.952;4.678;2023-01-10T07:12:20;4.70;99.90
24035;DHT22;12242;50.952;4.678;2023-01-10T07:14:47;4.70;99.90
24035;DHT22;12242;50.952;4.678;2023-01-10T07:17:19;4.70;99.90
24035;DHT22;12242;50.952;4.678;2023-01-10T07:19:49;4.70;99.90
24035;DHT22;12242;50.952;4.678;2023-01-10T07:22:19;4.70;99.90
24035;DHT22;12242;50.952;4.678;2023-01-10T07:24:46;4.70;99.90
24035;DHT22;12242;50.952;4.678;2023-01-10T07:27:16;4.70;99.90
24035;DHT22;12242;50.952;4.678;2023-01-10T07:29:43;4.70;99.90
24035;DHT22;12242;50.952;4.678;2023-01-10T07:32:10;4.70;99.90
24035;DHT22;12242;50.952;4.678;2023-01-10T07:34:38;4.70;99.90
24035;DHT22;12242;50.952;4.678;2023-01-10T07:37:05;4.80;99.90
24035;DHT22;12242;50.952;4.678;2023-01-10T07:39:32;4.70;99.90
24035;DHT22;12242;50.952;4.678;2023-01-10T07:42:03;4.80;99.90
24035;DHT22;12242;50.952;4.678;2023-01-10T07:44:33;4.80;99.90
24035;DHT22;12242;50.952;4.678;2023-01-10T07:47:01;4.80;99.90
24035;DHT22;12242;50.952;4.678;2023-01-10T07:49:28;4.90;99.90
24035;DHT22;12242;50.952;4.678;2023-01-10T07:52:01;4.90;99.90
24035;DHT22;12242;50.952;4.678;2023-01-10T07:54:33;4.90;99.90
24035;DHT22;12242;50.952;4.678;2023-01-10T07:57:01;5.00;99.90
24035;DHT22;12242;50.952;4.678;2023-01-10T07:59:29;5.10;99.90
24035;DHT22;12242;50.952;4.678;2023-01-10T08:01:56;5.10;99.90
24035;DHT22;12242;50.952;4.678;2023-01-10T08:04:26;5.20;99.90
24035;DHT22;12242;50.952;4.678;2023-01-10T08:06:54;5.20;99.90
24035;DHT22;12242;50.952;4.678;2023-01-10T08:09:24;5.30;99.90
24035;DHT22;12242;50.952;4.678;2023-01-10T08:11:51;5.30;99.90
24035;DHT22;12242;50.952;4.678;2023-01-10T08:14:21;5.40;99.90
24035;DHT22;12242;50.952;4.678;2023-01-10T08:16:48;5.50;99.90
24035;DHT22;12242;50.952;4.678;2023-01-10T08:19:17;5.60;99.90
24035;DHT22;12242;50.952;4.678;2023-01-10T08:21:45;5.80;99.90
24035;DHT22;12242;50.952;4.678;2023-01-10T08:24:12;5.90;99.90
24035;DHT22;12242;50.952;4.678;2023-01-10T08:26:39;6.10;99.90
24035;DHT22;12242;50.952;4.678;2023-01-10T08:29:07;6.10;99.90
24035;DHT22;12242;50.952;4.678;2023-01-10T08:31:36;6.10;99.90
24035;DHT22;12242;50.952;4.678;2023-01-10T08:34:03;6.20;99.90
24035;DHT22;12242;50.952;4.678;2023-01-10T08:36:31;6.20;99.90
24035;DHT22;12242;50.952;4.678;2023-01-10T08:38:58;6.20;99.90
24035;DHT22;12242;50.952;4.678;2023-01-10T08:41:27;6.30;99.90
24035;DHT22;12242;50.952;4.678;2023-01-10T08:43:55;6.30;99.90
24035;DHT22;12242;50.952;4.678;2023-01-10T08:46:23;6.30;99.90
24035;DHT22;12242;50.952;4.678;2023-01-10T08:48:57;6.30;99.90
24035;DHT22;12242;50.952;4.678;2023-01-10T08:51:31;6.40;99.90
24035;DHT22;12242;50.952;4.678;2023-01-10T08:53:59;6.40;99.90
24035;DHT22;12242;50.952;4.678;2023-01-10T08:56:28;6.40;99.90
24035;DHT22;12242;50.952;4.678;2023-01-10T08:58:56;6.20;99.90
24035;DHT22;12242;50.952;4.678;2023-01-10T09:01:28;6.30;99.90
24035;DHT22;12242;50.952;4.678;2023-01-10T09:03:56;6.20;99.90
24035;DHT22;12242;50.952;4.678;2023-01-10T09:06:23;6.30;99.90
24035;DHT22;12242;50.952;4.678;2023-01-10T09:08:51;6.30;99.90
24035;DHT22;12242;50.952;4.678;2023-01-10T09:11:20;6.40;99.90
24035;DHT22;12242;50.952;4.678;2023-01-10T09:13:52;6.40;99.90
24035;DHT22;12242;50.952;4.678;2023-01-10T09:16:20;6.50;99.90
24035;DHT22;12242;50.952;4.678;2023-01-10T09:18:47;6.60;99.90
24035;DHT22;12242;50.952;4.678;2023-01-10T09:21:14;6.60;99.90
24035;DHT22;12242;50.952;4.678;2023-01-10T09:23:42;6.70;99.90
24035;DHT22;12242;50.952;4.678;2023-01-10T09:26:10;6.80;99.90
24035;DHT22;12242;50.952;4.678;2023-01-10T09:28:38;6.90;99.90
24035;DHT22;12242;50.952;4.678;2023-01-10T09:31:10;7.00;99.90
24035;DHT22;12242;50.952;4.678;2023-01-10T09:33:40;7.10;99.90
24035;DHT22;12242;50.952;4.678;2023-01-10T09:36:14;7.00;99.90
24035;DHT22;12242;50.952;4.678;2023-01-10T09:38:43;7.00;99.90
24035;DHT22;12242;50.952;4.678;2023-01-10T09:46:58;7.10;99.90
24035;DHT22;12242;50.952;4.678;2023-01-10T09:55:40;7.30;99.90
24035;DHT22;12242;50.952;4.678;2023-01-10T09:58:16;7.30;99.90
24035;DHT22;12242;50.952;4.678;2023-01-10T10:00:51;7.40;99.90
24035;DHT22;12242;50.952;4.678;2023-01-10T10:06:13;7.40;99.90
24035;DHT22;12242;50.952;4.678;2023-01-10T10:08:43;7.40;99.90
24035;DHT22;12242;50.952;4.678;2023-01-10T10:11:30;7.50;99.90
24035;DHT22;12242;50.952;4.678;2023-01-10T10:31:12;7.80;99.90
24035;DHT22;12242;50.952;4.678;2023-01-10T10:33:51;7.80;99.90
24035;DHT22;12242;50.952;4.678;2023-01-10T10:38:56;8.20;99.90
24035;DHT22;12242;50.952;4.678;2023-01-10T10:44:01;8.30;99.90
24035;DHT22;12242;50.952;4.678;2023-01-10T10:46:33;8.30;99.90
24035;DHT22;12242;50.952;4.678;2023-01-10T10:49:15;8.30;99.90
24035;DHT22;12242;50.952;4.678;2023-01-10T10:51:46;8.50;99.90
24035;DHT22;12242;50.952;4.678;2023-01-10T10:54:16;8.50;99.90
24035;DHT22;12242;50.952;4.678;2023-01-10T10:56:46;8.50;99.90
24035;DHT22;12242;50.952;4.678;2023-01-10T10:59:18;8.50;99.90
24035;DHT22;12242;50.952;4.678;2023-01-10T11:01:48;8.50;99.90
24035;DHT22;12242;50.952;4.678;2023-01-10T11:04:20;8.40;99.90
24035;DHT22;12242;50.952;4.678;2023-01-10T11:06:50;8.40;99.90
24035;DHT22;12242;50.952;4.678;2023-01-10T11:09:20;8.40;99.90
24035;DHT22;12242;50.952;4.678;2023-01-10T11:12:12;8.40;99.90
24035;DHT22;12242;50.952;4.678;2023-01-10T11:14:49;8.40;99.90
24035;DHT22;12242;50.952;4.678;2023-01-10T11:17:29;8.30;99.90
24035;DHT22;12242;50.952;4.678;2023-01-10T11:20:02;8.30;99.90
24035;DHT22;12242;50.952;4.678;2023-01-10T11:22:43;8.30;99.90
24035;DHT22;12242;50.952;4.678;2023-01-10T11:25:14;8.30;99.90
24035;DHT22;12242;50.952;4.678;2023-01-10T11:27:52;8.20;99.90
24035;DHT22;12242;50.952;4.678;2023-01-10T11:30:29;8.20;99.90
24035;DHT22;12242;50.952;4.678;2023-01-10T11:33:00;8.10;99.90
24035;DHT22;12242;50.952;4.678;2023-01-10T11:35:32;8.20;99.90
24035;DHT22;12242;50.952;4.678;2023-01-10T11:40:37;8.10;99.90
24035;DHT22;12242;50.952;4.678;2023-01-10T11:43:38;8.10;99.90
24035;DHT22;12242;50.952;4.678;2023-01-10T11:46:22;8.10;99.90
24035;DHT22;12242;50.952;4.678;2023-01-10T11:49:04;8.20;99.90
24035;DHT22;12242;50.952;4.678;2023-01-10T11:51:43;8.30;99.90
24035;DHT22;12242;50.952;4.678;2023-01-10T11:54:19;8.30;99.90
24035;DHT22;12242;50.952;4.678;2023-01-10T11:56:59;8.20;99.90
24035;DHT22;12242;50.952;4.678;2023-01-10T11:59:28;8.10;99.90
24035;DHT22;12242;50.952;4.678;2023-01-10T12:04:31;8.30;99.90
24035;DHT22;12242;50.952;4.678;2023-01-10T12:07:03;8.40;99.90
24035;DHT22;12242;50.952;4.678;2023-01-10T12:10:00;8.40;99.90
24035;DHT22;12242;50.952;4.678;2023-01-10T12:12:30;8.50;99.90
24035;DHT22;12242;50.952;4.678;2023-01-10T12:15:28;8.50;99.90
24035;DHT22;12242;50.952;4.678;2023-01-10T12:17:58;8.60;99.90
24035;DHT22;12242;50.952;4.678;2023-01-10T12:20:31;8.60;99.90
24035;DHT22;12242;50.952;4.678;2023-01-10T12:23:14;8.60;99.90
24035;DHT22;12242;50.952;4.678;2023-01-10T12:25:43;8.50;99.90
24035;DHT22;12242;50.952;4.678;2023-01-10T12:28:21;8.50;99.90
24035;DHT22;12242;50.952;4.678;2023-01-10T12:30:49;8.60;99.90
24035;DHT22;12242;50.952;4.678;2023-01-10T12:33:26;8.60;99.90
24035;DHT22;12242;50.952;4.678;2023-01-10T12:41:45;8.30;99.90
24035;DHT22;12242;50.952;4.678;2023-01-10T12:44:39;8.40;99.90
24035;DHT22;12242;50.952;4.678;2023-01-10T12:50:22;8.40;99.90
24035;DHT22;12242;50.952;4.678;2023-01-10T12:53:03;8.40;99.90
24035;DHT22;12242;50.952;4.678;2023-01-10T12:55:40;8.30;99.90
24035;DHT22;12242;50.952;4.678;2023-01-10T12:58:38;8.30;99.90
24035;DHT22;12242;50.952;4.678;2023-01-10T13:01:13;8.20;99.90
24035;DHT22;12242;50.952;4.678;2023-01-10T13:03:42;8.10;99.90
24035;DHT22;12242;50.952;4.678;2023-01-10T13:06:20;8.10;99.90
24035;DHT22;12242;50.952;4.678;2023-01-10T13:08:50;8.00;99.90
24035;DHT22;12242;50.952;4.678;2023-01-10T13:11:21;8.00;99.90
24035;DHT22;12242;50.952;4.678;2023-01-10T13:13:54;7.90;99.90
24035;DHT22;12242;50.952;4.678;2023-01-10T13:19:03;7.90;99.90
24035;DHT22;12242;50.952;4.678;2023-01-10T13:21:34;7.80;99.90
24035;DHT22;12242;50.952;4.678;2023-01-10T13:29:18;7.80;99.90
24035;DHT22;12242;50.952;4.678;2023-01-10T13:31:46;7.80;99.90
24035;DHT22;12242;50.952;4.678;2023-01-10T13:34:26;7.70;99.90
24035;DHT22;12242;50.952;4.678;2023-01-10T13:37:08;7.70;99.90
24035;DHT22;12242;50.952;4.678;2023-01-10T13:39:41;7.70;99.90
24035;DHT22;12242;50.952;4.678;2023-01-10T13:42:24;7.60;99.90
24035;DHT22;12242;50.952;4.678;2023-01-10T14:00:49;7.40;99.90
24035;DHT22;12242;50.952;4.678;2023-01-10T14:03:48;7.40;99.90
24035;DHT22;12242;50.952;4.678;2023-01-10T14:06:34;7.30;99.90
24035;DHT22;12242;50.952;4.678;2023-01-10T14:14:35;7.20;99.90
24035;DHT22;12242;50.952;4.678;2023-01-10T14:17:27;7.20;99.90
24035;DHT22;12242;50.952;4.678;2023-01-10T14:24:52;7.00;99.90
24035;DHT22;12242;50.952;4.678;2023-01-10T14:27:20;7.00;99.90
24035;DHT22;12242;50.952;4.678;2023-01-10T14:29:55;7.00;99.90
24035;DHT22;12242;50.952;4.678;2023-01-10T14:35:01;7.00;99.90
24035;DHT22;12242;50.952;4.678;2023-01-10T14:37:40;7.00;99.90
24035;DHT22;12242;50.952;4.678;2023-01-10T14:40:28;6.90;99.90
24035;DHT22;12242;50.952;4.678;2023-01-10T14:43:02;7.00;99.90
24035;DHT22;12242;50.952;4.678;2023-01-10T14:45:53;7.00;99.90
24035;DHT22;12242;50.952;4.678;2023-01-10T14:48:24;6.90;99.90
24035;DHT22;12242;50.952;4.678;2023-01-10T14:54:12;6.90;99.90
24035;DHT22;12242;50.952;4.678;2023-01-10T14:56:51;6.90;99.90
24035;DHT22;12242;50.952;4.678;2023-01-10T14:59:33;6.90;99.90
24035;DHT22;12242;50.952;4.678;2023-01-10T15:02:22;6.90;99.90
24035;DHT22;12242;50.952;4.678;2023-01-10T15:04:57;6.80;99.90
24035;DHT22;12242;50.952;4.678;2023-01-10T15:07:36;6.80;99.90
24035;DHT22;12242;50.952;4.678;2023-01-10T15:10:26;6.80;99.90
24035;DHT22;12242;50.952;4.678;2023-01-10T15:12:58;6.80;99.90
24035;DHT22;12242;50.952;4.678;2023-01-10T15:15:35;6.90;99.90
24035;DHT22;12242;50.952;4.678;2023-01-10T15:18:32;6.90;99.90
24035;DHT22;12242;50.952;4.678;2023-01-10T15:21:03;6.90;99.90
24035;DHT22;12242;50.952;4.678;2023-01-10T15:23:38;6.90;99.90
24035;DHT22;12242;50.952;4.678;2023-01-10T15:26:09;6.90;99.90
24035;DHT22;12242;50.952;4.678;2023-01-10T15:28:37;6.90;99.90
24035;DHT22;12242;50.952;4.678;2023-01-10T15:31:06;6.90;99.90
24035;DHT22;12242;50.952;4.678;2023-01-10T15:33:35;6.90;99.90
24035;DHT22;12242;50.952;4.678;2023-01-10T15:36:14;6.90;99.90
24035;DHT22;12242;50.952;4.678;2023-01-10T15:38:45;6.90;99.90
24035;DHT22;12242;50.952;4.678;2023-01-10T15:41:19;6.90;99.90
24035;DHT22;12242;50.952;4.678;2023-01-10T15:43:47;6.90;99.90
24035;DHT22;12242;50.952;4.678;2023-01-10T15:46:23;6.90;99.90
24035;DHT22;12242;50.952;4.678;2023-01-10T15:49:00;6.90;99.90
24035;DHT22;12242;50.952;4.678;2023-01-10T15:51:36;7.00;99.90
24035;DHT22;12242;50.952;4.678;2023-01-10T15:56:57;7.00;99.90
24035;DHT22;12242;50.952;4.678;2023-01-10T15:59:38;7.00;99.90
24035;DHT22;12242;50.952;4.678;2023-01-10T16:02:24;7.00;99.90
24035;DHT22;12242;50.952;4.678;2023-01-10T16:05:09;7.00;99.90
24035;DHT22;12242;50.952;4.678;2023-01-10T16:07:43;7.00;99.90
24035;DHT22;12242;50.952;4.678;2023-01-10T16:12:54;7.10;99.90
24035;DHT22;12242;50.952;4.678;2023-01-10T16:15:54;7.10;99.90
24035;DHT22;12242;50.952;4.678;2023-01-10T16:18:25;7.10;99.90
24035;DHT22;12242;50.952;4.678;2023-01-10T16:20:57;7.10;99.90
24035;DHT22;12242;50.952;4.678;2023-01-10T16:23:30;7.20;99.90
24035;DHT22;12242;50.952;4.678;2023-01-10T16:26:02;7.20;99.90
24035;DHT22;12242;50.952;4.678;2023-01-10T16:28:29;7.20;99.90
24035;DHT22;12242;50.952;4.678;2023-01-10T16:31:03;7.20;99.90
24035;DHT22;12242;50.952;4.678;2023-01-10T16:33:33;7.20;99.90
24035;DHT22;12242;50.952;4.678;2023-01-10T16:36:16;7.20;99.90
24035;DHT22;12242;50.952;4.678;2023-01-10T16:38:44;7.30;99.90
24035;DHT22;12242;50.952;4.678;2023-01-10T16:41:13;7.30;99.90
24035;DHT22;12242;50.952;4.678;2023-01-10T16:43:59;7.40;99.90
24035;DHT22;12242;50.952;4.678;2023-01-10T16:46:29;7.40;99.90
24035;DHT22;12242;50.952;4.678;2023-01-10T16:48:57;7.50;99.90
24035;DHT22;12242;50.952;4.678;2023-01-10T16:51:27;7.50;99.90
24035;DHT22;12242;50.952;4.678;2023-01-10T16:53:55;7.50;99.90
24035;DHT22;12242;50.952;4.678;2023-01-10T16:56:24;7.50;99.90
24035;DHT22;12242;50.952;4.678;2023-01-10T16:58:52;7.50;99.90
24035;DHT22;12242;50.952;4.678;2023-01-10T17:01:24;7.60;99.90
24035;DHT22;12242;50.952;4.678;2023-01-10T17:03:55;7.60;99.90
24035;DHT22;12242;50.952;4.678;2023-01-10T17:06:23;7.70;99.90
24035;DHT22;12242;50.952;4.678;2023-01-10T17:08:53;7.70;99.90
24035;DHT22;12242;50.952;4.678;2023-01-10T17:11:32;7.70;99.90
24035;DHT22;12242;50.952;4.678;2023-01-10T17:14:01;7.80;99.90
24035;DHT22;12242;50.952;4.678;2023-01-10T17:16:30;7.80;99.90
24035;DHT22;12242;50.952;4.678;2023-01-10T17:19:00;7.80;99.90
24035;DHT22;12242;50.952;4.678;2023-01-10T17:21:30;7.80;99.90
24035;DHT22;12242;50.952;4.678;2023-01-10T17:24:00;7.80;99.90
24035;DHT22;12242;50.952;4.678;2023-01-10T17:26:27;7.80;99.90
24035;DHT22;12242;50.952;4.678;2023-01-10T17:28:55;7.90;99.90
24035;DHT22;12242;50.952;4.678;2023-01-10T17:31:22;7.80;99.90
24035;DHT22;12242;50.952;4.678;2023-01-10T17:33:49;7.90;99.90
24035;DHT22;12242;50.952;4.678;2023-01-10T17:36:17;7.90;99.90
24035;DHT22;12242;50.952;4.678;2023-01-10T17:38:45;8.00;99.90
24035;DHT22;12242;50.952;4.678;2023-01-10T17:41:20;8.00;99.90
24035;DHT22;12242;50.952;4.678;2023-01-10T17:43:50;8.10;99.90
24035;DHT22;12242;50.952;4.678;2023-01-10T17:46:17;8.10;99.90
24035;DHT22;12242;50.952;4.678;2023-01-10T17:48:47;8.10;99.90
24035;DHT22;12242;50.952;4.678;2023-01-10T17:51:15;8.10;99.90
24035;DHT22;12242;50.952;4.678;2023-01-10T17:53:43;8.20;99.90
24035;DHT22;12242;50.952;4.678;2023-01-10T17:56:10;8.20;99.90
24035;DHT22;12242;50.952;4.678;2023-01-10T17:58:38;8.20;99.90
24035;DHT22;12242;50.952;4.678;2023-01-10T18:01:16;8.10;99.90
24035;DHT22;12242;50.952;4.678;2023-01-10T18:03:51;8.10;99.90
24035;DHT22;12242;50.952;4.678;2023-01-10T18:06:23;8.00;99.90
24035;DHT22;12242;50.952;4.678;2023-01-10T18:08:52;8.00;99.90
24035;DHT22;12242;50.952;4.678;2023-01-10T18:11:21;8.00;99.90
24035;DHT22;12242;50.952;4.678;2023-01-10T18:13:51;8.10;99.90
24035;DHT22;12242;50.952;4.678;2023-01-10T18:16:18;8.10;99.90
24035;DHT22;12242;50.952;4.678;2023-01-10T18:18:46;8.10;99.90